SHT14G EGLL-EGJJ
Flight info
| Callsign | SHT14G |
|---|---|
| Flight time | N/A |
| Altitude | 19000 |
| Route | GOGSI2G GOGSI N621 SAM/N0374F180 N63 LELNA LELNA1J |
| Aircraft | A320/M-SDE3FGIJ1KRWXY/SB1 |
Departure
| Time | 2026-05-01 15:08 |
|---|---|
| Airport | London Heathrow Airport (EGLL) |
Arrival
| Time | N/A |
|---|---|
| Airport | Jersey Airport (EGJJ) |
| Time | Latitude | Longitude | Altitude | Speed | Heading |
|---|---|---|---|---|---|
| 2026-05-01 14:47 | 51.46930 | -0.48790 | 89 ft | 0 kts | 359° |
| 2026-05-01 14:58 | 51.46912 | -0.48790 | 89 ft | 4 kts | 5° |
| 2026-05-01 14:59 | 51.46887 | -0.48799 | 87 ft | 4 kts | 37° |
| 2026-05-01 14:59 | 51.46876 | -0.48823 | 89 ft | 0 kts | 90° |
| 2026-05-01 15:02 | 51.46876 | -0.48811 | 90 ft | 4 kts | 90° |
| 2026-05-01 15:02 | 51.46876 | -0.48746 | 87 ft | 4 kts | 91° |
| 2026-05-01 15:02 | 51.46875 | -0.48643 | 87 ft | 14 kts | 89° |
| 2026-05-01 15:03 | 51.46845 | -0.48474 | 88 ft | 17 kts | 161° |
| 2026-05-01 15:03 | 51.46724 | -0.48470 | 87 ft | 18 kts | 180° |
| 2026-05-01 15:03 | 51.46658 | -0.48387 | 88 ft | 12 kts | 88° |
| 2026-05-01 15:03 | 51.46657 | -0.48249 | 90 ft | 13 kts | 93° |
| 2026-05-01 15:04 | 51.46654 | -0.48057 | 87 ft | 22 kts | 89° |
| 2026-05-01 15:04 | 51.46653 | -0.47786 | 87 ft | 25 kts | 89° |
| 2026-05-01 15:04 | 51.46655 | -0.47500 | 87 ft | 26 kts | 89° |
| 2026-05-01 15:04 | 51.46656 | -0.47202 | 87 ft | 27 kts | 90° |
| 2026-05-01 15:05 | 51.46657 | -0.46895 | 89 ft | 28 kts | 89° |
| 2026-05-01 15:05 | 51.46658 | -0.46581 | 91 ft | 29 kts | 89° |
| 2026-05-01 15:05 | 51.46659 | -0.46251 | 88 ft | 30 kts | 90° |
| 2026-05-01 15:05 | 51.46659 | -0.45912 | 88 ft | 31 kts | 90° |
| 2026-05-01 15:06 | 51.46658 | -0.45557 | 88 ft | 33 kts | 89° |
| 2026-05-01 15:06 | 51.46662 | -0.45187 | 87 ft | 34 kts | 89° |
| 2026-05-01 15:06 | 51.46663 | -0.44803 | 87 ft | 35 kts | 90° |
| 2026-05-01 15:06 | 51.46664 | -0.44519 | 87 ft | 25 kts | 90° |
| 2026-05-01 15:07 | 51.46664 | -0.44233 | 87 ft | 27 kts | 90° |
| 2026-05-01 15:07 | 51.46603 | -0.44057 | 87 ft | 18 kts | 178° |
| 2026-05-01 15:07 | 51.46505 | -0.44076 | 86 ft | 12 kts | 223° |
| 2026-05-01 15:07 | 51.46492 | -0.44253 | 87 ft | 34 kts | 269° |
| 2026-05-01 15:08 | 51.46485 | -0.45021 | 92 ft | 101 kts | 269° |
| 2026-05-01 15:08 | 51.46481 | -0.46452 | 88 ft | 152 kts | 270° |
| 2026-05-01 15:08 | 51.46494 | -0.48313 | 336 ft | 174 kts | 264° |
| 2026-05-01 15:08 | 51.46488 | -0.50273 | 1088 ft | 173 kts | 265° |
| 2026-05-01 15:09 | 51.46473 | -0.52235 | 1602 ft | 185 kts | 264° |
| 2026-05-01 15:09 | 51.46432 | -0.54426 | 1900 ft | 209 kts | 265° |
| 2026-05-01 15:09 | 51.46386 | -0.56902 | 2291 ft | 234 kts | 266° |
| 2026-05-01 15:09 | 51.46344 | -0.59621 | 2886 ft | 252 kts | 265° |
| 2026-05-01 15:10 | 51.46236 | -0.62493 | 3822 ft | 255 kts | 256° |
| 2026-05-01 15:10 | 51.45475 | -0.68162 | 5641 ft | 266 kts | 263° |
| 2026-05-01 15:10 | 51.45406 | -0.71151 | 6545 ft | 270 kts | 265° |
| 2026-05-01 15:11 | 51.45373 | -0.74196 | 7404 ft | 274 kts | 265° |
| 2026-05-01 15:11 | 51.44941 | -0.80276 | 9069 ft | 276 kts | 244° |
| 2026-05-01 15:11 | 51.43958 | -0.82875 | 9902 ft | 273 kts | 225° |
| 2026-05-01 15:12 | 51.42521 | -0.84907 | 10474 ft | 284 kts | 217° |
| 2026-05-01 15:12 | 51.39180 | -0.88981 | 11315 ft | 313 kts | 212° |
| 2026-05-01 15:12 | 51.37338 | -0.90977 | 12034 ft | 316 kts | 212° |
| 2026-05-01 15:13 | 51.31789 | -0.97041 | 14145 ft | 328 kts | 212° |
| 2026-05-01 15:14 | 51.27993 | -1.01224 | 15407 ft | 334 kts | 212° |
| 2026-05-01 15:14 | 51.26042 | -1.03282 | 16032 ft | 337 kts | 211° |
| 2026-05-01 15:14 | 51.22147 | -1.07266 | 17236 ft | 344 kts | 210° |
| 2026-05-01 15:15 | 51.18082 | -1.11413 | 18479 ft | 350 kts | 210° |
| 2026-05-01 15:15 | 51.13951 | -1.15653 | 19121 ft | 354 kts | 211° |
| 2026-05-01 15:16 | 51.09856 | -1.19855 | 19185 ft | 348 kts | 211° |
| 2026-05-01 15:16 | 51.05792 | -1.24027 | 19189 ft | 348 kts | 211° |
| 2026-05-01 15:17 | 51.01698 | -1.28217 | 19193 ft | 347 kts | 210° |
| 2026-05-01 15:18 | 50.95583 | -1.34416 | 19193 ft | 347 kts | 208° |
| 2026-05-01 15:18 | 50.93441 | -1.36176 | 19191 ft | 347 kts | 205° |
| 2026-05-01 15:19 | 50.86973 | -1.41342 | 19195 ft | 347 kts | 205° |
| 2026-05-01 15:19 | 50.82652 | -1.44785 | 19203 ft | 348 kts | 205° |
| 2026-05-01 15:19 | 50.80491 | -1.46503 | 19202 ft | 348 kts | 205° |
| 2026-05-01 15:20 | 50.76134 | -1.49955 | 19207 ft | 348 kts | 205° |
| 2026-05-01 15:20 | 50.73967 | -1.51672 | 19206 ft | 348 kts | 205° |
| 2026-05-01 15:20 | 50.71801 | -1.53390 | 19209 ft | 348 kts | 205° |
| 2026-05-01 15:21 | 50.69636 | -1.55111 | 19210 ft | 348 kts | 205° |
| 2026-05-01 15:21 | 50.67471 | -1.56830 | 19213 ft | 349 kts | 205° |
| 2026-05-01 15:21 | 50.65301 | -1.58545 | 19213 ft | 349 kts | 205° |
| 2026-05-01 15:21 | 50.63130 | -1.60255 | 19214 ft | 349 kts | 205° |
| 2026-05-01 15:22 | 50.58786 | -1.63669 | 19213 ft | 349 kts | 205° |
| 2026-05-01 15:22 | 50.56614 | -1.65374 | 19217 ft | 349 kts | 205° |
| 2026-05-01 15:22 | 50.54446 | -1.67079 | 19217 ft | 349 kts | 205° |
| 2026-05-01 15:23 | 50.52270 | -1.68790 | 19219 ft | 349 kts | 205° |
| 2026-05-01 15:23 | 50.50100 | -1.70494 | 19219 ft | 349 kts | 205° |
| 2026-05-01 15:23 | 50.47915 | -1.72205 | 19207 ft | 353 kts | 205° |
| 2026-05-01 15:23 | 50.45720 | -1.73919 | 19205 ft | 351 kts | 205° |
| 2026-05-01 15:24 | 50.43543 | -1.75619 | 19206 ft | 349 kts | 205° |
| 2026-05-01 15:24 | 50.41372 | -1.77314 | 19208 ft | 349 kts | 205° |
| 2026-05-01 15:24 | 50.39201 | -1.79009 | 19212 ft | 349 kts | 205° |
| 2026-05-01 15:24 | 50.37030 | -1.80702 | 19211 ft | 349 kts | 205° |
| 2026-05-01 15:25 | 50.34860 | -1.82393 | 19210 ft | 349 kts | 205° |
| 2026-05-01 15:25 | 50.33392 | -1.83537 | 19210 ft | 349 kts | 205° |
| 2026-05-01 15:25 | 50.31220 | -1.85224 | 19213 ft | 349 kts | 205° |
| 2026-05-01 15:25 | 50.29047 | -1.86906 | 19213 ft | 349 kts | 205° |
| 2026-05-01 15:26 | 50.26870 | -1.88593 | 19217 ft | 349 kts | 205° |
| 2026-05-01 15:26 | 50.24694 | -1.90286 | 19222 ft | 349 kts | 205° |
| 2026-05-01 15:26 | 50.22519 | -1.91971 | 19224 ft | 349 kts | 205° |
| 2026-05-01 15:26 | 50.20339 | -1.93656 | 19225 ft | 349 kts | 205° |
| 2026-05-01 15:27 | 50.18170 | -1.95332 | 19227 ft | 344 kts | 205° |
| 2026-05-01 15:27 | 50.16070 | -1.96956 | 19125 ft | 331 kts | 205° |
| 2026-05-01 15:27 | 50.14042 | -1.98524 | 18961 ft | 321 kts | 204° |
| 2026-05-01 15:28 | 50.10085 | -2.01566 | 18274 ft | 315 kts | 204° |
| 2026-05-01 15:28 | 50.08126 | -2.03066 | 17877 ft | 313 kts | 204° |
| 2026-05-01 15:28 | 50.06179 | -2.04555 | 17484 ft | 311 kts | 204° |
| 2026-05-01 15:29 | 50.02325 | -2.07511 | 16705 ft | 307 kts | 204° |
| 2026-05-01 15:29 | 50.00417 | -2.08961 | 16336 ft | 305 kts | 202° |
| 2026-05-01 15:29 | 49.96326 | -2.10009 | 15613 ft | 299 kts | 174° |
| 2026-05-01 15:30 | 49.92264 | -2.08789 | 14884 ft | 296 kts | 169° |
| 2026-05-01 15:31 | 49.84236 | -2.06316 | 13465 ft | 290 kts | 169° |
| 2026-05-01 15:31 | 49.80334 | -2.05119 | 12988 ft | 278 kts | 170° |
| 2026-05-01 15:32 | 49.76660 | -2.04002 | 12727 ft | 260 kts | 170° |
| 2026-05-01 15:32 | 49.73223 | -2.02950 | 12468 ft | 244 kts | 170° |
| 2026-05-01 15:33 | 49.68461 | -2.01656 | 11367 ft | 226 kts | 176° |
| 2026-05-01 15:34 | 49.63805 | -2.01169 | 9970 ft | 222 kts | 178° |